KRQB

Roben-Hood Airport

Big Rapids, Michigan, USA
METAR KRQB 190855Z AUTO 00000KT 10SM CLR 12/12 A3005 RMK AO2 T01230115
Observed Flight Rules
Sep-19 @ 08:55 UTC (9 minutes ago) Visual Flight Rules
Visibility Clouds
10 miles
  • Clear skies
Temperatures Readings
Current 12°C / 54°F
Dewpoint 12°C / 54°F
Humidity 100%
Altimeter 30.05" Hg
Pressure 1018 hPa
Elevation 302
METAR KRQB 190855Z AUTO 00000KT 10SM CLR 12/12 A3005 RMK AO2 T01230115
Observed Flight Rules
Sep-19 @ 08:55 UTC
(9 minutes ago)
VFR
Clouds
  • Clear skies
Temperature Dewpoint
12°C / 54°F 12°C / 54°F
Humidity Altimeter Pressure
100% 30.05" Hg 1018 hPa